createdAt,value
2023-02-27T00:01:33.439Z,102531.22
2023-02-27T00:04:03.760Z,102541.94
2023-02-27T00:06:33.745Z,102537.63
2023-02-27T00:09:07.180Z,102538.03
2023-02-27T00:11:38.689Z,102534.56
2023-02-27T00:14:11.578Z,102530.09
2023-02-27T00:16:41.336Z,102535.25
2023-02-27T00:19:11.375Z,102536.31
2023-02-27T00:21:41.330Z,102541.66
2023-02-27T00:24:14.388Z,102528.69
2023-02-27T00:26:44.518Z,102522.94
2023-02-27T00:29:14.794Z,102526.84
2023-02-27T00:31:45.101Z,102519.50
2023-02-27T00:34:15.825Z,102521.38
2023-02-27T00:36:45.859Z,102519.16
2023-02-27T00:39:18.384Z,102528.63
2023-02-27T00:41:48.327Z,102523.50
2023-02-27T00:44:18.175Z,102522.44
2023-02-27T00:46:48.319Z,102526.97
2023-02-27T00:49:19.844Z,102527.81
2023-02-27T00:51:49.689Z,102524.53
2023-02-27T00:54:22.268Z,102519.16
2023-02-27T00:56:52.052Z,102520.59
2023-02-27T00:59:22.062Z,102525.13
2023-02-27T01:01:52.306Z,102523.28
2023-02-27T01:04:22.218Z,102522.25
2023-02-27T01:06:52.035Z,102518.97
2023-02-27T01:09:25.169Z,102520.00
2023-02-27T01:11:55.629Z,102524.13
2023-02-27T01:14:25.614Z,102517.13
2023-02-27T01:16:55.973Z,102522.09
2023-02-27T01:19:25.853Z,102519.00
2023-02-27T01:21:56.300Z,102523.75
2023-02-27T01:24:28.723Z,102521.06
2023-02-27T01:26:58.987Z,102520.44
2023-02-27T01:29:28.849Z,102517.16
2023-02-27T01:31:58.972Z,102519.22
2023-02-27T01:34:29.305Z,102517.97
2023-02-27T01:36:59.275Z,102520.06
2023-02-27T01:39:33.134Z,102516.78
2023-02-27T01:42:03.193Z,102517.00
2023-02-27T01:44:34.598Z,102518.81
2023-02-27T01:47:04.435Z,102513.28
2023-02-27T01:49:37.515Z,102520.66
2023-02-27T01:52:10.350Z,102527.47
2023-02-27T01:54:44.693Z,102518.84
2023-02-27T01:57:15.995Z,102517.19
2023-02-27T01:59:46.700Z,102524.19
2023-02-27T02:02:23.366Z,102516.19
2023-02-27T02:04:54.408Z,102522.53
2023-02-27T02:07:25.486Z,102516.34
2023-02-27T02:10:03.582Z,102521.09
2023-02-27T02:12:37.303Z,102525.19
2023-02-27T02:15:08.918Z,102520.50
2023-02-27T02:17:48.210Z,102519.66
2023-02-27T02:20:56.864Z,102520.06
2023-02-27T02:24:08.239Z,102522.97
2023-02-27T02:27:01.076Z,102524.19
2023-02-27T02:30:00.625Z,102527.06
2023-02-27T02:33:06.036Z,102527.47
2023-02-27T02:36:10.704Z,102527.91
2023-02-27T02:39:10.500Z,102522.97
2023-02-27T02:41:56.271Z,102527.69
2023-02-27T02:44:35.263Z,102521.53
2023-02-27T02:47:09.036Z,102524.41
2023-02-27T02:49:48.867Z,102523.78
2023-02-27T02:52:26.946Z,102527.91
2023-02-27T02:55:02.935Z,102525.63
2023-02-27T02:57:40.917Z,102531.59
2023-02-27T03:00:18.750Z,102525.81
2023-02-27T03:02:52.510Z,102529.53
2023-02-27T03:05:27.970Z,102526.63
2023-02-27T03:08:03.267Z,102531.97
2023-02-27T03:10:36.664Z,102540.59
2023-02-27T03:13:18.153Z,102530.72
2023-02-27T03:15:53.574Z,102525.78
2023-02-27T03:18:28.796Z,102533.19
2023-02-27T03:21:01.756Z,102536.88
2023-02-27T03:23:36.628Z,102540.97
2023-02-27T03:26:08.093Z,102531.31
2023-02-27T03:28:44.043Z,102531.13
2023-02-27T03:31:22.185Z,102537.03
2023-02-27T03:33:57.677Z,102534.59
2023-02-27T03:36:37.796Z,102526.97
2023-02-27T03:39:14.617Z,102520.81
2023-02-27T03:41:50.721Z,102529.00
2023-02-27T03:44:31.704Z,102525.31
2023-02-27T03:47:02.074Z,102524.28
2023-02-27T03:49:31.896Z,102527.38
2023-02-27T03:52:01.955Z,102525.09
2023-02-27T03:54:36.510Z,102535.59
2023-02-27T03:57:08.056Z,102529.00
2023-02-27T03:59:41.510Z,102533.75
2023-02-27T04:02:11.828Z,102528.63
2023-02-27T04:04:41.667Z,102530.69
2023-02-27T04:07:26.548Z,102537.91
2023-02-27T04:10:22.400Z,102535.25
2023-02-27T04:13:21.144Z,102533.16
2023-02-27T04:16:17.902Z,102533.13
2023-02-27T04:18:59.269Z,102542.59
2023-02-27T04:21:37.948Z,102539.28
2023-02-27T04:24:16.402Z,102536.19
2023-02-27T04:26:51.248Z,102541.75
2023-02-27T04:29:27.576Z,102556.13
2023-02-27T04:32:05.411Z,102545.84
2023-02-27T04:34:41.250Z,102549.53
2023-02-27T04:37:15.947Z,102546.25
2023-02-27T04:39:53.522Z,102557.75
2023-02-27T04:42:27.773Z,102560.19
2023-02-27T04:45:00.910Z,102561.44
2023-02-27T04:47:38.393Z,102568.38
2023-02-27T04:50:12.858Z,102556.06
2023-02-27T04:52:47.590Z,102564.28
2023-02-27T04:55:22.942Z,102567.13
2023-02-27T04:57:56.702Z,102568.56
2023-02-27T05:00:29.738Z,102571.22
2023-02-27T05:03:08.706Z,102577.34
2023-02-27T05:05:41.482Z,102574.06
2023-02-27T05:08:17.322Z,102574.06
2023-02-27T05:10:52.323Z,102577.75
2023-02-27T05:13:27.983Z,102584.75
2023-02-27T05:16:03.034Z,102585.34
2023-02-27T05:18:35.709Z,102583.31
2023-02-27T05:21:13.122Z,102588.66
2023-02-27T05:23:47.779Z,102589.47
2023-02-27T05:26:21.208Z,102585.16
2023-02-27T05:28:58.253Z,102593.97
2023-02-27T05:31:32.728Z,102595.00
2023-02-27T05:34:13.259Z,102596.25
2023-02-27T05:36:49.110Z,102587.41
2023-02-27T05:39:24.289Z,102595.41
2023-02-27T05:42:00.164Z,102592.75
2023-02-27T05:44:35.176Z,102602.41
2023-02-27T05:47:08.921Z,102605.69
2023-02-27T05:49:46.838Z,102605.31
2023-02-27T05:52:22.015Z,102605.50
2023-02-27T05:54:56.557Z,102610.66
2023-02-27T05:57:31.577Z,102612.94
2023-02-27T06:00:06.025Z,102617.25
2023-02-27T06:02:36.167Z,102615.16
2023-02-27T06:05:09.923Z,102620.28
2023-02-27T06:07:40.286Z,102630.72
2023-02-27T06:10:11.346Z,102632.13
2023-02-27T06:12:41.174Z,102632.06
2023-02-27T06:15:12.082Z,102634.94
2023-02-27T06:17:42.360Z,102648.28
2023-02-27T06:20:15.756Z,102647.25
2023-02-27T06:22:45.581Z,102656.28
2023-02-27T06:25:15.743Z,102653.00
2023-02-27T06:27:45.904Z,102661.81
2023-02-27T06:30:16.771Z,102657.31
2023-02-27T06:32:46.546Z,102657.72
2023-02-27T06:35:19.535Z,102652.75
2023-02-27T06:37:49.341Z,102662.19
2023-02-27T06:40:19.918Z,102656.41
2023-02-27T06:42:49.804Z,102660.91
2023-02-27T06:45:20.788Z,102658.81
2023-02-27T06:47:50.928Z,102658.00
2023-02-27T06:50:23.675Z,102653.47
2023-02-27T06:52:53.412Z,102658.00
2023-02-27T06:55:25.571Z,102667.66
2023-02-27T06:57:58.545Z,102669.94
2023-02-27T07:00:29.660Z,102666.25
2023-02-27T07:02:59.534Z,102666.25
2023-02-27T07:05:32.194Z,102676.28
2023-02-27T07:08:03.445Z,102679.97
2023-02-27T07:10:34.389Z,102682.81
2023-02-27T07:13:04.554Z,102683.47
2023-02-27T07:15:34.395Z,102685.94
2023-02-27T07:18:04.216Z,102689.44
2023-02-27T07:20:37.083Z,102689.22
2023-02-27T07:23:07.157Z,102696.19
2023-02-27T07:25:36.967Z,102694.19
2023-02-27T07:28:07.206Z,102699.13
2023-02-27T07:30:39.480Z,102702.41
2023-02-27T07:33:09.306Z,102704.72
2023-02-27T07:35:41.867Z,102705.34
2023-02-27T07:38:11.712Z,102708.63
2023-02-27T07:40:42.060Z,102707.84
2023-02-27T07:43:11.845Z,102707.09
2023-02-27T07:45:41.664Z,102704.91
2023-02-27T07:48:11.476Z,102700.22
2023-02-27T07:50:43.971Z,102703.16
2023-02-27T07:53:13.735Z,102698.50
2023-02-27T07:55:43.625Z,102705.44
2023-02-27T07:58:13.526Z,102702.22
2023-02-27T08:00:43.322Z,102713.59
2023-02-27T08:03:13.738Z,102717.53
2023-02-27T08:05:46.234Z,102713.66
2023-02-27T08:08:16.375Z,102707.88
2023-02-27T08:10:46.223Z,102712.94
2023-02-27T08:13:20.612Z,102704.22
2023-02-27T08:15:50.537Z,102701.44
2023-02-27T08:18:20.378Z,102701.53
2023-02-27T08:20:53.131Z,102702.31
2023-02-27T08:23:23.055Z,102704.72
2023-02-27T08:25:53.116Z,102702.41
2023-02-27T08:28:23.283Z,102713.69
2023-02-27T08:30:53.145Z,102706.47
2023-02-27T08:33:23.014Z,102703.78
2023-02-27T08:35:55.962Z,102706.75
2023-02-27T08:38:26.538Z,102714.22
2023-02-27T08:40:56.540Z,102710.97
2023-02-27T08:43:26.869Z,102711.84
2023-02-27T08:45:56.678Z,102707.34
2023-02-27T08:48:26.637Z,102705.31
2023-02-27T08:50:59.814Z,102712.56
2023-02-27T08:53:30.052Z,102713.19
2023-02-27T08:55:59.983Z,102710.31
2023-02-27T08:58:30.188Z,102716.72
2023-02-27T09:01:00.175Z,102715.69
2023-02-27T09:03:30.131Z,102706.81
2023-02-27T09:06:03.587Z,102713.84
2023-02-27T09:08:33.475Z,102722.69
2023-02-27T09:11:05.761Z,102723.28
2023-02-27T09:13:35.652Z,102720.63
2023-02-27T09:16:05.556Z,102724.72
2023-02-27T09:18:35.774Z,102713.97
2023-02-27T09:21:10.770Z,102728.41
2023-02-27T09:23:40.634Z,102719.09
2023-02-27T09:26:11.644Z,102710.16
2023-02-27T09:28:42.453Z,102710.97
2023-02-27T09:31:13.329Z,102714.81
2023-02-27T09:33:43.166Z,102714.78
2023-02-27T09:36:16.360Z,102708.72
2023-02-27T09:38:46.274Z,102701.44
2023-02-27T09:41:41.469Z,102705.72
2023-02-27T09:44:33.599Z,102708.50
2023-02-27T09:47:08.173Z,102698.88
2023-02-27T09:49:50.985Z,102703.97
2023-02-27T09:52:23.427Z,102708.16
2023-02-27T09:54:54.609Z,102705.56
2023-02-27T09:57:35.607Z,102690.09
2023-02-27T10:00:10.530Z,102694.06
2023-02-27T10:02:54.364Z,102694.13
2023-02-27T10:05:35.797Z,102703.25
2023-02-27T10:08:16.936Z,102689.81
2023-02-27T10:10:52.297Z,102696.31
2023-02-27T10:13:44.458Z,102688.84
2023-02-27T10:16:17.020Z,102695.09
2023-02-27T10:18:58.282Z,102694.50
2023-02-27T10:21:34.219Z,102687.06
2023-02-27T10:24:15.816Z,102694.31
2023-02-27T10:26:49.929Z,102680.06
2023-02-27T10:29:26.553Z,102680.44
2023-02-27T10:32:03.254Z,102686.91
2023-02-27T10:34:34.532Z,102687.13
2023-02-27T10:37:06.841Z,102692.28
2023-02-27T10:39:48.476Z,102695.69
2023-02-27T10:42:20.218Z,102696.88
2023-02-27T10:44:53.692Z,102684.91
2023-02-27T10:47:26.133Z,102707.50
2023-02-27T10:50:00.497Z,102699.88
2023-02-27T10:52:30.441Z,102697.19
2023-02-27T10:55:21.409Z,102696.25
2023-02-27T10:57:52.330Z,102694.13
2023-02-27T11:00:46.255Z,102693.09
2023-02-27T11:03:23.679Z,102695.19
2023-02-27T11:05:59.971Z,102689.47
2023-02-27T11:08:32.812Z,102689.09
2023-02-27T11:11:09.499Z,102686.03
2023-02-27T11:13:41.988Z,102687.78
2023-02-27T11:16:15.642Z,102681.44
2023-02-27T11:18:47.623Z,102680.50
2023-02-27T11:21:26.648Z,102680.69
2023-02-27T11:24:02.532Z,102685.13
2023-02-27T11:26:38.201Z,102672.22
2023-02-27T11:29:11.823Z,102674.88
2023-02-27T11:31:42.917Z,102673.78
2023-02-27T11:34:22.697Z,102667.88
2023-02-27T11:36:56.045Z,102671.25
2023-02-27T11:39:33.483Z,102666.94
2023-02-27T11:42:17.710Z,102659.31
2023-02-27T11:44:59.567Z,102664.13
2023-02-27T11:47:34.799Z,102673.00
2023-02-27T11:50:26.378Z,102652.78
2023-02-27T11:53:00.927Z,102662.19
2023-02-27T11:55:31.766Z,102649.75
2023-02-27T11:58:08.040Z,102648.59
2023-02-27T12:00:45.610Z,102653.03
2023-02-27T12:03:23.954Z,102640.09
2023-02-27T12:05:57.425Z,102640.75
2023-02-27T12:08:36.750Z,102639.38
2023-02-27T12:11:14.968Z,102620.66
2023-02-27T12:13:52.446Z,102626.94
2023-02-27T12:16:31.683Z,102631.28
2023-02-27T12:19:09.135Z,102622.63
2023-02-27T12:21:45.177Z,102619.19
2023-02-27T12:24:24.203Z,102621.13
2023-02-27T12:27:01.005Z,102623.25
2023-02-27T12:29:39.402Z,102619.03
2023-02-27T12:32:19.525Z,102615.56
2023-02-27T12:34:53.080Z,102625.66
2023-02-27T12:37:26.829Z,102624.66
2023-02-27T12:39:59.022Z,102615.56
2023-02-27T12:42:45.157Z,102625.81
2023-02-27T12:45:32.065Z,102622.06
2023-02-27T12:48:16.530Z,102629.34
2023-02-27T12:50:52.905Z,102625.72
2023-02-27T12:53:40.241Z,102619.19
2023-02-27T12:56:18.197Z,102618.69
2023-02-27T12:58:58.822Z,102609.28
2023-02-27T13:01:42.704Z,102613.88
2023-02-27T13:04:26.637Z,102617.88
2023-02-27T13:07:04.482Z,102605.53
2023-02-27T13:09:43.887Z,102600.13
2023-02-27T13:12:28.531Z,102598.78
2023-02-27T13:15:02.940Z,102596.19
2023-02-27T13:17:42.502Z,102592.06
2023-02-27T13:20:29.241Z,102598.50
2023-02-27T13:23:08.245Z,102592.50
2023-02-27T13:25:40.941Z,102588.16
2023-02-27T13:28:17.028Z,102591.75
2023-02-27T13:30:52.473Z,102599.19
2023-02-27T13:33:34.701Z,102597.06
2023-02-27T13:36:13.974Z,102602.72
2023-02-27T13:38:46.893Z,102596.56
2023-02-27T13:41:38.663Z,102601.88
2023-02-27T13:44:50.004Z,102601.84
2023-02-27T13:47:41.957Z,102587.75
2023-02-27T13:50:41.787Z,102596.00
2023-02-27T13:53:20.858Z,102603.03
2023-02-27T13:55:50.929Z,102597.56
2023-02-27T13:58:24.778Z,102595.63
2023-02-27T14:01:05.739Z,102590.69
2023-02-27T14:03:35.882Z,102590.88
2023-02-27T14:06:08.270Z,102598.16
2023-02-27T14:08:54.191Z,102590.38
2023-02-27T14:11:28.038Z,102592.66
2023-02-27T14:14:03.496Z,102592.66
2023-02-27T14:16:58.806Z,102581.84
2023-02-27T14:19:51.140Z,102587.81
2023-02-27T14:22:40.858Z,102577.91
2023-02-27T14:25:24.813Z,102582.59
2023-02-27T14:27:57.895Z,102580.38
2023-02-27T14:30:35.290Z,102582.50
2023-02-27T14:33:19.468Z,102580.38
2023-02-27T14:35:59.539Z,102574.53
2023-02-27T14:38:31.102Z,102575.50
2023-02-27T14:41:15.857Z,102582.16
2023-02-27T14:43:55.322Z,102570.47
2023-02-27T14:46:28.744Z,102579.06
2023-02-27T14:49:02.103Z,102574.91
2023-02-27T14:51:36.474Z,102578.22
2023-02-27T14:54:17.201Z,102574.09
2023-02-27T14:57:04.584Z,102577.16
2023-02-27T14:59:37.215Z,102575.50
2023-02-27T15:02:17.243Z,102573.19
2023-02-27T15:04:48.661Z,102574.63
2023-02-27T15:07:26.922Z,102578.03
2023-02-27T15:09:59.186Z,102577.09
2023-02-27T15:12:33.353Z,102591.50
2023-02-27T15:15:06.123Z,102579.50
2023-02-27T15:17:42.177Z,102565.25
2023-02-27T15:20:27.636Z,102578.50
2023-02-27T15:22:57.643Z,102581.22
2023-02-27T15:25:33.317Z,102580.13
2023-02-27T15:28:08.485Z,102575.25
2023-02-27T15:30:38.408Z,102573.75
2023-02-27T15:33:17.670Z,102587.06
2023-02-27T15:35:51.816Z,102586.19
2023-02-27T15:38:29.988Z,102594.25
2023-02-27T15:41:01.458Z,102583.44
2023-02-27T15:43:34.751Z,102591.88
2023-02-27T15:46:04.857Z,102593.94
2023-02-27T15:48:35.892Z,102594.94
2023-02-27T15:51:07.524Z,102593.22
2023-02-27T15:53:39.921Z,102587.19
2023-02-27T15:56:15.039Z,102585.47
2023-02-27T15:58:54.190Z,102596.25
2023-02-27T16:01:27.596Z,102593.66
2023-02-27T16:03:59.288Z,102593.66
2023-02-27T16:06:32.374Z,102598.31
2023-02-27T16:09:04.834Z,102597.47
2023-02-27T16:11:41.284Z,102593.56
2023-02-27T16:14:48.864Z,102602.00
2023-02-27T16:17:32.536Z,102602.81
2023-02-27T16:20:05.827Z,102606.59
2023-02-27T16:22:39.428Z,102610.53
2023-02-27T16:25:14.465Z,102617.13
2023-02-27T16:27:52.783Z,102618.69
2023-02-27T16:30:25.677Z,102618.03
2023-02-27T16:33:06.404Z,102611.72
2023-02-27T16:35:39.461Z,102622.69
2023-02-27T16:38:09.533Z,102625.53
2023-02-27T16:40:39.367Z,102622.41
2023-02-27T16:43:09.434Z,102622.16
2023-02-27T16:45:53.522Z,102623.06
2023-02-27T16:48:26.019Z,102624.69
2023-02-27T16:50:55.962Z,102618.47
2023-02-27T16:53:26.060Z,102614.16
2023-02-27T16:55:55.985Z,102618.94
2023-02-27T16:58:26.001Z,102620.75
2023-02-27T17:00:58.604Z,102626.28
2023-02-27T17:03:28.491Z,102627.25
2023-02-27T17:05:58.374Z,102633.09
2023-02-27T17:08:28.771Z,102634.16
2023-02-27T17:10:58.765Z,102634.06
2023-02-27T17:13:28.613Z,102637.81
2023-02-27T17:16:01.083Z,102641.72
2023-02-27T17:18:30.876Z,102647.34
2023-02-27T17:21:03.154Z,102643.03
2023-02-27T17:23:33.020Z,102647.25
2023-02-27T17:26:02.806Z,102650.88
2023-02-27T17:28:33.062Z,102646.56
2023-02-27T17:31:10.808Z,102653.94
2023-02-27T17:33:43.340Z,102654.56
2023-02-27T17:36:14.272Z,102655.00
2023-02-27T17:38:44.090Z,102656.78
2023-02-27T17:41:16.554Z,102669.34
2023-02-27T17:43:46.415Z,102673.22
2023-02-27T17:46:18.920Z,102672.81
2023-02-27T17:48:48.825Z,102671.63
2023-02-27T17:51:20.337Z,102679.13
2023-02-27T17:53:50.299Z,102676.31
2023-02-27T17:56:20.583Z,102681.63
2023-02-27T17:58:50.331Z,102683.94
2023-02-27T18:01:26.310Z,102679.28
2023-02-27T18:03:57.704Z,102682.41
2023-02-27T18:06:28.898Z,102689.91
2023-02-27T18:09:02.035Z,102680.44
2023-02-27T18:11:35.229Z,102686.97
2023-02-27T18:14:05.026Z,102695.50
2023-02-27T18:16:40.772Z,102694.94
2023-02-27T18:19:10.900Z,102699.72
2023-02-27T18:21:42.582Z,102702.28
2023-02-27T18:24:12.441Z,102702.97
2023-02-27T18:26:42.935Z,102700.53
2023-02-27T18:29:18.090Z,102709.50
2023-02-27T18:31:53.696Z,102706.09
2023-02-27T18:34:24.227Z,102699.75
2023-02-27T18:36:55.527Z,102699.84
2023-02-27T18:39:26.397Z,102701.72
2023-02-27T18:41:56.674Z,102704.41
2023-02-27T18:44:26.897Z,102708.16
2023-02-27T18:46:59.358Z,102708.25
2023-02-27T18:49:29.378Z,102704.97
2023-02-27T18:51:59.188Z,102709.63
2023-02-27T18:54:29.652Z,102703.84
2023-02-27T18:57:01.106Z,102706.19
2023-02-27T18:59:31.401Z,102709.78
2023-02-27T19:02:04.115Z,102712.34
2023-02-27T19:04:35.536Z,102711.97
2023-02-27T19:07:05.430Z,102711.59
2023-02-27T19:09:35.556Z,102712.06
2023-02-27T19:12:11.034Z,102708.78
2023-02-27T19:14:43.451Z,102717.91
2023-02-27T19:17:15.984Z,102716.69
2023-02-27T19:19:45.856Z,102708.47
2023-02-27T19:22:15.713Z,102711.38
2023-02-27T19:24:45.748Z,102718.03
2023-02-27T19:27:17.330Z,102717.31
2023-02-27T19:29:47.168Z,102719.59
2023-02-27T19:32:19.743Z,102724.00
2023-02-27T19:34:49.815Z,102720.13
2023-02-27T19:37:19.952Z,102722.81
2023-02-27T19:39:51.819Z,102718.31
2023-02-27T19:42:21.752Z,102721.66
2023-02-27T19:44:51.761Z,102722.94
2023-02-27T19:47:24.239Z,102722.56
2023-02-27T19:49:54.402Z,102729.66
2023-02-27T19:52:24.332Z,102730.31
2023-02-27T19:54:54.534Z,102726.22
2023-02-27T19:57:24.646Z,102729.94
2023-02-27T19:59:54.746Z,102726.22
2023-02-27T20:02:27.422Z,102726.81
2023-02-27T20:04:57.743Z,102723.06
2023-02-27T20:07:29.191Z,102728.44
2023-02-27T20:09:59.421Z,102726.34
2023-02-27T20:12:29.288Z,102729.66
2023-02-27T20:14:59.176Z,102724.28
2023-02-27T20:17:33.212Z,102721.59
2023-02-27T20:20:04.939Z,102723.66
2023-02-27T20:22:35.578Z,102723.06
2023-02-27T20:25:05.444Z,102726.56
2023-02-27T20:27:36.992Z,102723.06
2023-02-27T20:30:07.694Z,102731.13
2023-02-27T20:32:40.474Z,102727.84
2023-02-27T20:35:12.221Z,102724.34
2023-02-27T20:37:42.534Z,102729.94
2023-02-27T20:40:14.046Z,102729.31
2023-02-27T20:42:43.836Z,102725.22
2023-02-27T20:45:14.280Z,102717.41
2023-02-27T20:47:46.739Z,102727.75
2023-02-27T20:50:18.773Z,102725.72
2023-02-27T20:52:49.244Z,102721.38
2023-02-27T20:55:19.594Z,102715.41
2023-02-27T20:57:49.410Z,102711.31
2023-02-27T21:00:20.324Z,102715.88
2023-02-27T21:02:52.834Z,102716.28
2023-02-27T21:05:22.940Z,102716.28
2023-02-27T21:07:52.963Z,102713.47
2023-02-27T21:10:22.797Z,102709.56
2023-02-27T21:12:53.402Z,102714.34
2023-02-27T21:15:23.296Z,102713.94
2023-02-27T21:17:55.797Z,102719.97
2023-02-27T21:20:25.680Z,102722.25
2023-02-27T21:22:56.208Z,102718.16
2023-02-27T21:25:26.147Z,102721.03
2023-02-27T21:28:02.437Z,102730.34
2023-02-27T21:30:32.644Z,102724.75
2023-02-27T21:33:05.422Z,102722.91
2023-02-27T21:35:35.616Z,102733.63
2023-02-27T21:38:05.552Z,102738.00
2023-02-27T21:40:35.377Z,102745.84
2023-02-27T21:43:07.445Z,102740.91
2023-02-27T21:45:41.590Z,102748.81
2023-02-27T21:48:14.385Z,102746.97
2023-02-27T21:50:44.569Z,102745.97
2023-02-27T21:53:14.533Z,102735.88
2023-02-27T21:55:44.446Z,102735.28
2023-02-27T21:58:14.208Z,102740.28
2023-02-27T22:00:44.310Z,102741.94
2023-02-27T22:03:17.050Z,102731.63
2023-02-27T22:05:50.462Z,102731.25
2023-02-27T22:08:20.398Z,102736.19
2023-02-27T22:10:50.165Z,102735.81
2023-02-27T22:13:20.016Z,102732.72
2023-02-27T22:15:49.995Z,102734.63
2023-02-27T22:18:22.883Z,102742.50
2023-02-27T22:20:52.694Z,102737.53
2023-02-27T22:23:22.609Z,102734.69
2023-02-27T22:26:02.276Z,102749.53
2023-02-27T22:28:32.812Z,102742.53
2023-02-27T22:31:10.457Z,102750.38
2023-02-27T22:33:44.512Z,102748.13
2023-02-27T22:36:16.684Z,102750.19
2023-02-27T22:38:46.901Z,102746.28
2023-02-27T22:41:19.139Z,102752.06
2023-02-27T22:43:50.025Z,102761.34
2023-02-27T22:46:26.836Z,102760.13
2023-02-27T22:49:00.672Z,102755.41
2023-02-27T22:51:31.528Z,102760.34
2023-02-27T22:54:04.620Z,102757.25
2023-02-27T22:56:36.831Z,102757.25
2023-02-27T22:59:07.845Z,102759.94
2023-02-27T23:01:41.096Z,102752.13
2023-02-27T23:04:17.094Z,102757.47
2023-02-27T23:06:52.883Z,102766.94
2023-02-27T23:09:28.002Z,102759.72
2023-02-27T23:11:58.985Z,102767.97
2023-02-27T23:14:29.393Z,102762.19
2023-02-27T23:17:00.096Z,102764.06
2023-02-27T23:19:33.550Z,102771.50
2023-02-27T23:22:03.602Z,102773.56
2023-02-27T23:24:33.533Z,102780.13
2023-02-27T23:27:16.405Z,102780.34
2023-02-27T23:29:55.341Z,102775.63
2023-02-27T23:32:25.426Z,102779.75
2023-02-27T23:34:58.035Z,102775.00
2023-02-27T23:37:27.812Z,102783.44
2023-02-27T23:39:57.659Z,102785.53
2023-02-27T23:42:27.724Z,102784.69
2023-02-27T23:44:54.860Z,102785.91
2023-02-27T23:47:36.982Z,102784.47
2023-02-27T23:50:11.040Z,102786.72
2023-02-27T23:52:41.216Z,102783.44
2023-02-27T23:55:12.008Z,102787.16
2023-02-27T23:57:42.265Z,102782.19
